Time;durP1;ratioP1;P1;durP2;ratioP2;P2;SDS_P1;SDS_P2;PMS_P1;PMS_P2;Temp;Humidity;BMP_temperature;BMP_pressure;BME280_temperature;BME280_humidity;BME280_pressure;Samples;Min_cycle;Max_cycle;Signal;HPM_P1;HPM_P2
2021/12/03 00:00:09;;;;;;;;;3.80;3.60;;;;;0.62;87.35;99307.03;5009044;28;8865;-54
2021/12/03 00:02:37;;;;;;;;;4.80;4.40;;;;;0.61;87.20;99307.97;5013565;28;8846;-54
2021/12/03 00:05:05;;;;;;;;;7.20;3.80;;;;;0.61;87.60;99301.91;5013373;28;8877;-55
2021/12/03 00:07:40;;;;;;;;;5.20;4.00;;;;;0.62;88.01;99307.03;5013063;28;8866;-55
2021/12/03 00:10:08;;;;;;;;;3.00;3.00;;;;;0.60;88.13;99298.41;5011141;28;8860;-54
2021/12/03 00:12:36;;;;;;;;;7.00;6.60;;;;;0.59;87.41;99294.09;5012661;28;9022;-54
2021/12/03 00:15:04;;;;;;;;;4.80;4.00;;;;;0.58;87.61;99292.41;5012529;28;8862;-54
2021/12/03 00:17:31;;;;;;;;;4.00;4.00;;;;;0.57;87.60;99295.97;5011804;28;8874;-54
2021/12/03 00:19:59;;;;;;;;;3.00;2.60;;;;;0.56;87.12;99288.19;5012718;28;8862;-54
2021/12/03 00:22:27;;;;;;;;;3.60;3.60;;;;;0.54;87.67;99284.78;5013375;28;8854;-54
2021/12/03 00:24:54;;;;;;;;;3.40;2.60;;;;;0.52;87.75;99284.84;5012439;28;8845;-54
2021/12/03 00:27:22;;;;;;;;;3.80;3.80;;;;;0.51;87.78;99280.56;5012703;28;8862;-54
2021/12/03 00:29:50;;;;;;;;;9.20;8.60;;;;;0.52;87.24;99284.00;5012371;28;8858;-54
2021/12/03 00:32:18;;;;;;;;;8.20;6.00;;;;;0.49;87.47;99282.41;5012006;28;8866;-55
2021/12/03 00:34:45;;;;;;;;;1.40;1.00;;;;;0.48;87.66;99275.44;5011880;28;8866;-54
2021/12/03 00:37:13;;;;;;;;;4.40;3.60;;;;;0.47;87.83;99289.47;5010561;28;9757;-54
2021/12/03 00:39:41;;;;;;;;;6.80;6.80;;;;;0.46;87.44;99293.00;5011363;28;8838;-54
2021/12/03 00:42:09;;;;;;;;;6.00;5.20;;;;;0.46;87.32;99295.63;5012346;28;8976;-54
2021/12/03 00:44:37;;;;;;;;;7.00;5.40;;;;;0.46;88.09;99300.03;5013713;28;9647;-54
2021/12/03 00:47:05;;;;;;;;;6.60;5.20;;;;;0.44;87.90;99305.34;5013414;28;8846;-54
2021/12/03 00:49:32;;;;;;;;;6.60;6.20;;;;;0.43;87.64;99305.41;5012704;28;8854;-54
2021/12/03 00:52:00;;;;;;;;;4.40;4.40;;;;;0.38;87.35;99300.41;5012485;28;9570;-55
2021/12/03 00:54:28;;;;;;;;;0.40;0.40;;;;;0.37;87.79;99297.84;5012661;28;8993;-54
2021/12/03 00:56:56;;;;;;;;;6.20;6.20;;;;;0.34;87.67;99291.03;5012232;28;9001;-54
2021/12/03 00:59:24;;;;;;;;;3.00;1.40;;;;;0.34;87.91;99306.72;5011307;28;8868;-54
2021/12/03 01:01:51;;;;;;;;;5.60;4.40;;;;;0.35;88.19;99311.03;5012661;28;8882;-54
2021/12/03 01:04:19;;;;;;;;;4.00;4.00;;;;;0.36;87.67;99310.09;5012269;28;8869;-54
2021/12/03 01:06:47;;;;;;;;;8.60;6.60;;;;;0.37;87.83;99303.94;5011427;28;9000;-54
2021/12/03 01:09:15;;;;;;;;;1.80;1.00;;;;;0.39;87.53;99309.94;5010492;28;8883;-54
2021/12/03 01:11:43;;;;;;;;;2.40;1.60;;;;;0.41;87.82;99308.13;5011839;28;8984;-54
2021/12/03 01:14:11;;;;;;;;;6.40;5.60;;;;;0.43;87.36;99308.88;5012006;28;8873;-54
2021/12/03 01:16:39;;;;;;;;;7.80;6.00;;;;;0.43;87.60;99313.25;5010177;28;8965;-54
2021/12/03 01:19:09;;;;;;;;;6.40;6.40;;;;;0.42;87.55;99308.94;5017030;28;8869;-54
2021/12/03 01:21:37;;;;;;;;;7.00;7.00;;;;;0.44;87.88;99310.56;5031627;28;8959;-55
2021/12/03 01:24:05;;;;;;;;;6.00;6.00;;;;;0.46;87.70;99315.75;5032550;28;8850;-55
2021/12/03 01:26:34;;;;;;;;;3.60;3.00;;;;;0.49;87.37;99319.06;5032048;28;8848;-54
2021/12/03 01:29:02;;;;;;;;;5.80;5.00;;;;;0.55;87.65;99323.97;5013771;28;8831;-54
2021/12/03 01:31:30;;;;;;;;;6.80;6.80;;;;;0.62;87.42;99330.59;5011798;28;9575;-54
2021/12/03 01:33:57;;;;;;;;;6.00;4.40;;;;;0.70;87.43;99335.47;5011215;28;8976;-54
2021/12/03 01:36:25;;;;;;;;;3.60;3.60;;;;;0.76;88.04;99351.72;5012043;28;8865;-55
2021/12/03 01:38:53;;;;;;;;;7.40;7.40;;;;;0.84;87.30;99343.50;5025908;28;8864;-55
2021/12/03 01:41:21;;;;;;;;;6.60;6.00;;;;;0.91;87.37;99350.97;5030136;28;9499;-55
2021/12/03 01:43:50;;;;;;;;;5.80;5.80;;;;;0.97;87.32;99352.41;5029708;28;8846;-55
2021/12/03 01:46:20;;;;;;;;;5.20;4.80;;;;;1.03;86.81;99350.34;5031953;28;8860;-54
2021/12/03 01:48:47;;;;;;;;;5.60;4.80;;;;;1.09;86.47;99357.06;5015475;28;8878;-55
2021/12/03 01:51:15;;;;;;;;;9.00;6.00;;;;;1.13;86.95;99366.47;5010965;28;8969;-54
2021/12/03 01:53:43;;;;;;;;;9.40;8.20;;;;;1.20;86.99;99362.59;5011114;28;8851;-55
2021/12/03 01:56:11;;;;;;;;;1.00;0.80;;;;;1.24;86.87;99362.38;5010877;28;8842;-55
2021/12/03 01:58:38;;;;;;;;;6.00;4.60;;;;;1.29;86.34;99359.50;5024803;28;8866;-55
2021/12/03 02:01:06;;;;;;;;;11.00;6.60;;;;;1.34;86.79;99355.72;5030465;28;8836;-55
2021/12/03 02:03:34;;;;;;;;;10.80;9.80;;;;;1.38;86.66;99364.28;5032249;28;9021;-55
2021/12/03 02:06:02;;;;;;;;;9.00;7.80;;;;;1.41;86.41;99349.22;5031742;28;8845;-55
2021/12/03 02:08:30;;;;;;;;;10.20;7.00;;;;;1.45;86.10;99347.28;5017827;28;8854;-55
2021/12/03 02:10:57;;;;;;;;;10.80;10.40;;;;;1.45;85.70;99344.66;5011477;28;9011;-55
2021/12/03 02:13:25;;;;;;;;;9.40;7.80;;;;;1.44;86.65;99354.28;5012049;28;8924;-55
2021/12/03 02:15:53;;;;;;;;;9.00;7.80;;;;;1.42;86.11;99350.91;5011947;28;8857;-55
2021/12/03 02:18:21;;;;;;;;;13.40;12.00;;;;;1.39;86.52;99340.59;5021006;28;8868;-55
2021/12/03 02:20:49;;;;;;;;;11.80;10.80;;;;;1.35;86.48;99343.44;5030615;28;8844;-54
2021/12/03 02:23:17;;;;;;;;;10.00;7.20;;;;;1.30;86.81;99345.47;5029721;28;8863;-54
2021/12/03 02:25:45;;;;;;;;;10.80;9.80;;;;;1.23;87.11;99344.91;5031512;28;8939;-54
2021/12/03 02:28:13;;;;;;;;;9.00;7.80;;;;;1.20;86.76;99349.47;5022736;28;8831;-54
2021/12/03 02:30:41;;;;;;;;;6.40;4.00;;;;;1.18;87.42;99341.72;5012330;28;8862;-54
2021/12/03 02:33:09;;;;;;;;;10.00;9.20;;;;;1.21;87.21;99348.56;5010940;28;8879;-55
2021/12/03 02:35:39;;;;;;;;;5.00;5.00;;;;;1.25;87.15;99345.72;5011847;28;8843;-55
2021/12/03 02:38:07;;;;;;;;;7.40;6.20;;;;;1.33;87.38;99346.16;5011897;28;8846;-55
2021/12/03 02:40:35;;;;;;;;;6.00;5.60;;;;;1.40;87.56;99337.03;5008387;28;8851;-54
2021/12/03 02:43:03;;;;;;;;;4.00;4.00;;;;;1.45;87.17;99335.00;5011676;28;8858;-54
2021/12/03 02:45:31;;;;;;;;;6.20;4.40;;;;;1.51;86.84;99334.69;5010135;28;8985;-54
2021/12/03 02:47:58;;;;;;;;;7.00;6.00;;;;;1.57;87.14;99334.38;5017209;28;8971;-55
2021/12/03 02:50:26;;;;;;;;;4.00;4.00;;;;;1.63;87.27;99341.06;5031109;28;8855;-54
2021/12/03 02:52:54;;;;;;;;;6.00;3.20;;;;;1.69;86.37;99346.00;5030023;28;8867;-55
2021/12/03 02:55:22;;;;;;;;;6.20;5.80;;;;;1.74;86.44;99343.97;5030738;28;8867;-55
2021/12/03 02:57:49;;;;;;;;;9.20;7.00;;;;;1.78;86.71;99343.72;5025312;28;8854;-54
2021/12/03 03:00:17;;;;;;;;;6.80;6.00;;;;;1.83;86.56;99349.56;5010845;28;9478;-55
2021/12/03 03:02:45;;;;;;;;;11.00;9.20;;;;;1.84;86.31;99343.41;5009328;28;8843;-54
2021/12/03 03:05:13;;;;;;;;;6.80;5.20;;;;;1.83;86.11;99338.22;5010938;28;8927;-55
2021/12/03 03:07:41;;;;;;;;;7.80;7.00;;;;;1.82;86.30;99345.25;5013633;28;8871;-54
2021/12/03 03:10:10;;;;;;;;;10.20;9.80;;;;;1.78;86.19;99335.84;5028728;28;8999;-54
2021/12/03 03:12:37;;;;;;;;;10.00;8.80;;;;;1.74;86.38;99342.19;5030135;28;8867;-55
2021/12/03 03:15:05;;;;;;;;;11.00;11.00;;;;;1.75;86.39;99337.78;5030882;28;9546;-54
2021/12/03 03:17:33;;;;;;;;;13.80;11.40;;;;;1.77;86.35;99336.78;5027673;28;8965;-54
2021/12/03 03:20:01;;;;;;;;;12.60;7.40;;;;;1.78;86.51;99327.97;5010551;28;8960;-55
2021/12/03 03:22:28;;;;;;;;;8.80;8.60;;;;;1.81;86.38;99332.22;5011143;28;8889;-54
2021/12/03 03:24:59;;;;;;;;;12.00;10.00;;;;;1.84;86.31;99332.03;5003739;28;8880;-54
2021/12/03 03:27:27;;;;;;;;;10.40;9.20;;;;;1.85;86.62;99323.22;5002666;28;8854;-54
2021/12/03 03:29:55;;;;;;;;;6.40;6.40;;;;;1.87;86.70;99324.84;5009051;28;8854;-54
2021/12/03 03:32:23;;;;;;;;;7.00;6.20;;;;;1.90;86.20;99319.41;5002055;28;8866;-54
2021/12/03 03:34:51;;;;;;;;;6.00;6.00;;;;;1.92;86.34;99325.44;5004692;28;8846;-54
2021/12/03 03:37:19;;;;;;;;;5.20;4.80;;;;;1.95;86.36;99330.53;5006432;28;8867;-55
2021/12/03 03:39:46;;;;;;;;;6.20;4.80;;;;;1.98;86.68;99334.75;4985846;28;8906;-56
2021/12/03 03:42:14;;;;;;;;;9.60;7.00;;;;;1.99;86.32;99320.72;4989464;28;8861;-55
2021/12/03 03:44:41;;;;;;;;;7.60;6.80;;;;;2.00;86.65;99328.50;4998014;28;8857;-55
2021/12/03 03:47:10;;;;;;;;;7.80;7.80;;;;;1.99;86.76;99326.78;5009901;28;8863;-54
2021/12/03 03:49:37;;;;;;;;;7.80;7.40;;;;;1.99;86.17;99329.41;5010241;28;9000;-55
2021/12/03 03:52:05;;;;;;;;;8.20;7.00;;;;;1.99;86.82;99331.19;5010042;28;8861;-55
2021/12/03 03:54:33;;;;;;;;;4.00;3.40;;;;;2.00;86.55;99319.78;5009929;28;8839;-55
2021/12/03 03:57:01;;;;;;;;;6.80;6.60;;;;;2.01;86.20;99311.81;5010658;28;8977;-54
2021/12/03 03:59:28;;;;;;;;;6.60;5.20;;;;;2.01;86.67;99303.94;5009477;28;8872;-54
2021/12/03 04:01:56;;;;;;;;;4.00;4.00;;;;;2.02;86.44;99310.88;5009807;28;9225;-55
2021/12/03 04:04:25;;;;;;;;;4.60;3.80;;;;;2.06;86.41;99315.00;5009518;28;8842;-55
2021/12/03 04:06:53;;;;;;;;;10.00;9.00;;;;;2.08;86.07;99313.19;5009565;28;8846;-54
2021/12/03 04:09:21;;;;;;;;;10.60;10.20;;;;;2.12;86.25;99305.97;5008926;28;8854;-55
2021/12/03 04:11:48;;;;;;;;;9.00;7.40;;;;;2.15;86.30;99301.41;5009430;28;8854;-55
2021/12/03 04:14:16;;;;;;;;;11.20;10.20;;;;;2.16;86.26;99295.22;5009420;28;8883;-54
2021/12/03 04:16:44;;;;;;;;;12.80;12.20;;;;;2.18;85.58;99295.09;5010404;28;8855;-56
2021/12/03 04:19:12;;;;;;;;;11.20;9.00;;;;;2.20;86.25;99293.25;5016475;28;9002;-55
2021/12/03 04:21:40;;;;;;;;;12.00;12.00;;;;;2.21;85.70;99301.03;5028299;28;8864;-54
2021/12/03 04:24:08;;;;;;;;;13.00;11.20;;;;;2.20;85.96;99286.22;5029450;28;8868;-55
2021/12/03 04:26:36;;;;;;;;;9.00;9.00;;;;;2.21;86.18;99290.53;5029506;28;8963;-55
2021/12/03 04:29:03;;;;;;;;;10.80;10.80;;;;;2.22;86.15;99300.13;5022487;28;8962;-55
2021/12/03 04:31:31;;;;;;;;;3.20;2.80;;;;;2.24;86.16;99297.38;5009723;28;8851;-55
2021/12/03 04:33:59;;;;;;;;;13.00;11.00;;;;;2.25;86.48;99288.56;5010236;28;9816;-55
2021/12/03 04:36:27;;;;;;;;;11.60;10.80;;;;;2.25;85.84;99292.06;5010017;28;8842;-55
2021/12/03 04:38:55;;;;;;;;;9.40;9.40;;;;;2.26;86.37;99296.38;5013509;28;8951;-55
2021/12/03 04:41:22;;;;;;;;;12.40;11.20;;;;;2.26;86.26;99283.25;5028199;28;8861;-54
2021/12/03 04:43:50;;;;;;;;;3.40;1.00;;;;;2.28;86.61;99288.41;5027894;28;8845;-55
2021/12/03 04:46:19;;;;;;;;;10.80;9.60;;;;;2.29;85.97;99293.56;5030513;28;8974;-55
2021/12/03 04:48:47;;;;;;;;;17.60;14.40;;;;;2.30;86.57;99283.91;5029442;28;10039;-55
2021/12/03 04:51:15;;;;;;;;;10.80;10.80;;;;;2.30;86.37;99286.53;5012459;28;8849;-55
2021/12/03 04:53:42;;;;;;;;;11.60;11.00;;;;;2.30;85.82;99284.78;5013603;28;8838;-54
2021/12/03 04:56:14;;;;;;;;;7.40;7.40;;;;;2.31;86.52;99275.97;5012164;28;8851;-55
2021/12/03 04:58:41;;;;;;;;;5.80;5.20;;;;;2.31;86.29;99280.34;5014462;28;8854;-55
2021/12/03 05:01:09;;;;;;;;;9.20;8.20;;;;;2.32;85.87;99274.16;5031923;28;8864;-56
2021/12/03 05:03:37;;;;;;;;;13.00;10.40;;;;;2.33;86.87;99278.47;5031943;28;8836;-56
2021/12/03 05:06:09;;;;;;;;;13.00;10.80;;;;;2.33;86.58;99270.59;5030888;28;8845;-56
2021/12/03 05:08:36;;;;;;;;;12.60;11.60;;;;;2.33;85.93;99274.09;5030064;28;8864;-55
2021/12/03 05:11:04;;;;;;;;;4.40;4.40;;;;;2.34;86.38;99270.53;5010494;28;8864;-55
2021/12/03 05:13:32;;;;;;;;;10.80;10.80;;;;;2.35;86.50;99276.63;5011185;28;8858;-55
2021/12/03 05:16:00;;;;;;;;;13.00;13.00;;;;;2.36;85.88;99258.13;5021388;28;8919;-55
2021/12/03 05:18:28;;;;;;;;;5.60;4.80;;;;;2.36;86.44;99266.03;5029190;28;8852;-54
2021/12/03 05:20:55;;;;;;;;;9.60;8.60;;;;;2.35;85.62;99272.22;5031759;28;8863;-55
2021/12/03 05:23:23;;;;;;;;;9.80;8.40;;;;;2.34;85.96;99273.16;5031321;28;8844;-54
2021/12/03 05:25:51;;;;;;;;;6.40;5.60;;;;;2.33;86.14;99274.09;5023628;28;8933;-55
2021/12/03 05:28:19;;;;;;;;;9.00;7.80;;;;;2.34;86.00;99275.78;5012262;28;8846;-55
2021/12/03 05:30:49;;;;;;;;;9.60;9.60;;;;;2.34;86.60;99282.81;5011919;28;8877;-55
2021/12/03 05:33:16;;;;;;;;;9.60;9.00;;;;;2.33;86.36;99279.34;5010233;28;9031;-55
2021/12/03 05:35:44;;;;;;;;;4.80;4.40;;;;;2.33;86.09;99275.84;5017626;28;8852;-55
2021/12/03 05:38:12;;;;;;;;;7.80;6.40;;;;;2.31;86.77;99281.22;5030695;28;8863;-55
2021/12/03 05:40:40;;;;;;;;;9.60;7.40;;;;;2.32;86.83;99276.78;5029987;28;8900;-55
2021/12/03 05:43:08;;;;;;;;;10.00;8.20;;;;;2.32;86.53;99280.28;5030934;28;8836;-55
2021/12/03 05:45:36;;;;;;;;;9.80;8.60;;;;;2.32;86.66;99298.66;5026018;28;8830;-55
2021/12/03 05:48:03;;;;;;;;;10.20;9.20;;;;;2.34;86.39;99298.59;5009780;28;8997;-55
2021/12/03 05:50:31;;;;;;;;;5.00;3.20;;;;;2.36;86.69;99308.03;5010123;28;8989;-56
2021/12/03 05:53:00;;;;;;;;;4.40;4.00;;;;;2.40;86.50;99301.69;5010640;28;9111;-54
2021/12/03 05:55:28;;;;;;;;;6.00;6.00;;;;;2.45;86.25;99318.06;5011979;28;8969;-55
2021/12/03 05:57:55;;;;;;;;;8.00;6.20;;;;;2.49;86.05;99303.78;5028919;28;8955;-55
2021/12/03 06:00:23;;;;;;;;;4.40;3.60;;;;;2.51;86.14;99299.28;5029003;28;8848;-55
2021/12/03 06:02:52;;;;;;;;;12.60;9.80;;;;;2.55;86.09;99299.97;5027188;28;8879;-54
2021/12/03 06:05:20;;;;;;;;;8.60;6.80;;;;;2.57;86.76;99298.13;5026653;28;8865;-54
2021/12/03 06:07:48;;;;;;;;;7.40;7.40;;;;;2.59;86.30;99296.22;5026534;28;8844;-54
2021/12/03 06:10:15;;;;;;;;;6.00;4.00;;;;;2.60;86.04;99298.78;5023695;28;8844;-54
2021/12/03 06:12:43;;;;;;;;;5.80;5.80;;;;;2.62;86.29;99294.28;5026791;28;8860;-55
2021/12/03 06:15:11;;;;;;;;;7.20;4.60;;;;;2.64;85.55;99295.03;5027516;28;8844;-54
2021/12/03 06:17:39;;;;;;;;;7.80;6.20;;;;;2.66;86.12;99293.16;5027456;28;8845;-55
2021/12/03 06:20:06;;;;;;;;;15.00;13.20;;;;;2.66;86.06;99295.78;5025591;28;8993;-55
2021/12/03 06:22:34;;;;;;;;;3.60;3.40;;;;;2.69;85.73;99289.50;5027024;28;8848;-54
2021/12/03 06:25:02;;;;;;;;;8.60;7.60;;;;;2.70;86.28;99294.69;5024107;28;8852;-55
2021/12/03 06:27:31;;;;;;;;;11.60;9.60;;;;;2.71;86.19;99295.50;5025897;28;9312;-54
2021/12/03 06:29:59;;;;;;;;;11.60;9.40;;;;;2.72;85.58;99287.53;5023991;28;8929;-54
2021/12/03 06:32:26;;;;;;;;;9.40;8.80;;;;;2.72;85.65;99287.53;5019383;28;9152;-54
2021/12/03 06:34:54;;;;;;;;;9.40;7.80;;;;;2.73;85.70;99289.22;5025488;28;8860;-54
2021/12/03 06:37:22;;;;;;;;;3.60;3.60;;;;;2.75;85.83;99292.63;5025197;28;8848;-55
2021/12/03 06:39:50;;;;;;;;;11.20;10.00;;;;;2.76;85.69;99294.31;5019944;28;8947;-54
2021/12/03 06:42:17;;;;;;;;;6.20;6.00;;;;;2.77;86.04;99296.00;5020897;28;8874;-54
2021/12/03 06:44:45;;;;;;;;;4.00;3.20;;;;;2.77;85.74;99295.16;5020706;28;8906;-55
2021/12/03 06:47:13;;;;;;;;;6.40;6.00;;;;;2.77;86.18;99288.13;5017338;28;9484;-54
2021/12/03 06:49:41;;;;;;;;;14.80;13.60;;;;;2.77;85.90;99282.88;5020386;28;8873;-54
2021/12/03 06:52:11;;;;;;;;;7.00;6.60;;;;;2.77;86.35;99290.75;5019495;28;8925;-55
2021/12/03 06:54:41;;;;;;;;;6.00;6.00;;;;;2.78;85.77;99295.06;5020857;28;8874;-54
2021/12/03 06:57:08;;;;;;;;;10.00;8.40;;;;;2.78;86.25;99281.94;5021979;28;8844;-54
2021/12/03 06:59:36;;;;;;;;;7.80;6.40;;;;;2.75;86.15;99284.75;5018266;28;8894;-54
2021/12/03 07:02:04;;;;;;;;;14.60;11.40;;;;;2.75;86.00;99289.16;5017895;28;8852;-54
2021/12/03 07:04:32;;;;;;;;;10.00;6.00;;;;;2.76;86.12;99283.81;5017104;28;8840;-54
2021/12/03 07:06:59;;;;;;;;;15.60;15.00;;;;;2.77;85.91;99285.50;5016465;28;8867;-54
2021/12/03 07:09:27;;;;;;;;;9.40;7.40;;;;;2.78;85.74;99287.19;5014691;28;9078;-54
2021/12/03 07:11:55;;;;;;;;;8.40;6.60;;;;;2.79;85.61;99278.38;5015476;28;9114;-54
2021/12/03 07:14:23;;;;;;;;;6.80;6.40;;;;;2.81;86.29;99294.88;5016131;28;8971;-54
2021/12/03 07:16:51;;;;;;;;;6.00;5.20;;;;;2.83;86.41;99293.03;5013731;28;9676;-54
2021/12/03 07:19:18;;;;;;;;;6.80;6.40;;;;;2.84;85.82;99294.72;5015922;28;8884;-55
2021/12/03 07:21:46;;;;;;;;;7.00;4.80;;;;;2.86;85.86;99291.97;5016440;28;8852;-54
2021/12/03 07:24:14;;;;;;;;;4.80;4.80;;;;;2.88;85.59;99303.28;5019550;28;8933;-54
2021/12/03 07:26:42;;;;;;;;;8.20;6.60;;;;;2.88;85.46;99293.59;5014509;28;8840;-54
2021/12/03 07:29:09;;;;;;;;;14.20;10.20;;;;;2.90;85.29;99304.88;5021022;28;8848;-53
2021/12/03 07:31:38;;;;;;;;;7.00;6.00;;;;;2.90;85.87;99290.88;5018113;28;9401;-54
2021/12/03 07:34:06;;;;;;;;;7.00;6.00;;;;;2.91;85.43;99292.56;5015663;28;9142;-54
2021/12/03 07:36:34;;;;;;;;;6.40;6.40;;;;;2.93;86.19;99288.91;5007996;28;9114;-54
2021/12/03 07:39:02;;;;;;;;;6.60;6.60;;;;;2.94;85.47;99290.59;5014245;28;8860;-54
2021/12/03 07:41:29;;;;;;;;;10.00;9.40;;;;;2.95;85.45;99294.91;5018846;28;8918;-55
2021/12/03 07:43:59;;;;;;;;;12.20;6.40;;;;;2.95;85.58;99294.91;5019774;28;8837;-54
2021/12/03 07:46:27;;;;;;;;;4.00;3.20;;;;;2.96;86.00;99286.09;5018382;28;8844;-54
2021/12/03 07:48:54;;;;;;;;;7.00;7.00;;;;;2.97;85.44;99279.06;5020568;28;8873;-55
2021/12/03 07:51:22;;;;;;;;;5.20;4.00;;;;;2.97;85.42;99279.06;5019311;28;8852;-55
2021/12/03 07:53:50;;;;;;;;;12.00;10.80;;;;;2.97;86.08;99285.19;5015606;28;8975;-55
2021/12/03 07:56:18;;;;;;;;;12.00;10.80;;;;;2.99;86.15;99285.06;5017886;28;8837;-55
2021/12/03 07:58:45;;;;;;;;;11.40;7.40;;;;;2.98;85.71;99284.22;5017634;28;8979;-55
2021/12/03 08:01:14;;;;;;;;;11.20;10.00;;;;;3.00;85.74;99292.00;5020466;28;8866;-55
2021/12/03 08:03:42;;;;;;;;;10.00;10.00;;;;;3.01;86.06;99289.31;5019466;28;8864;-55
2021/12/03 08:06:10;;;;;;;;;8.60;7.40;;;;;3.03;85.36;99278.69;5018466;28;9499;-54
2021/12/03 08:08:39;;;;;;;;;8.20;5.60;;;;;3.03;85.62;99289.22;5016136;28;8883;-55
2021/12/03 08:11:07;;;;;;;;;1.00;0.60;;;;;3.05;85.60;99284.69;5017610;28;9130;-55
2021/12/03 08:13:34;;;;;;;;;6.60;6.40;;;;;3.06;85.31;99295.13;5013564;28;8977;-54
2021/12/03 08:16:02;;;;;;;;;2.60;2.60;;;;;3.07;85.48;99301.22;5015154;28;8988;-55
2021/12/03 08:18:30;;;;;;;;;10.80;8.20;;;;;3.08;85.40;99300.28;5015503;28;9313;-54
2021/12/03 08:20:58;;;;;;;;;14.00;10.00;;;;;3.09;85.71;99300.19;5016449;28;8917;-55
2021/12/03 08:23:26;;;;;;;;;11.60;9.80;;;;;3.10;85.86;99299.25;5019548;28;8851;-54
2021/12/03 08:25:53;;;;;;;;;12.00;11.60;;;;;3.12;85.42;99299.19;5017573;28;8878;-54
2021/12/03 08:28:21;;;;;;;;;11.00;9.20;;;;;3.13;85.95;99300.88;5018248;28;8840;-54
2021/12/03 08:30:50;;;;;;;;;20.00;14.80;;;;;3.13;85.73;99293.84;5016629;28;8844;-55
2021/12/03 08:33:18;;;;;;;;;18.00;15.60;;;;;3.14;85.94;99300.78;5014499;28;8874;-55
2021/12/03 08:35:47;;;;;;;;;6.60;6.00;;;;;3.16;85.94;99298.91;5015995;28;8855;-55
2021/12/03 08:38:18;;;;;;;;;12.60;12.60;;;;;3.17;85.92;99297.13;5014629;28;8852;-55
2021/12/03 08:41:06;;;;;;;;;12.60;11.60;;;;;3.18;85.90;99297.00;5016701;28;9653;-55
2021/12/03 08:43:34;;;;;;;;;8.20;7.60;;;;;3.21;85.52;99304.75;5019360;28;9149;-55
2021/12/03 08:46:08;;;;;;;;;9.60;6.40;;;;;3.23;86.20;99299.38;5016301;28;8874;-55
2021/12/03 08:48:39;;;;;;;;;3.40;2.60;;;;;3.26;85.61;99305.28;5013758;28;9523;-55
2021/12/03 08:51:20;;;;;;;;;9.80;9.00;;;;;3.28;85.75;99292.91;5016070;28;8882;-54
2021/12/03 08:56:33;;;;;;;;;0.00;0.00;;;;;3.36;85.12;99277.50;5014974;28;9600;-54
2021/12/03 08:59:01;;;;;;;;;13.20;11.40;;;;;3.38;85.64;99299.28;5012278;28;8853;-54
2021/12/03 09:01:29;;;;;;;;;11.60;9.40;;;;;3.42;85.63;99289.44;5012787;28;8859;-55
2021/12/03 09:03:57;;;;;;;;;3.00;3.00;;;;;3.45;85.46;99290.09;5017344;28;9118;-55
2021/12/03 09:06:26;;;;;;;;;9.00;7.80;;;;;3.47;85.05;99277.69;5015133;28;8872;-55
2021/12/03 09:08:54;;;;;;;;;4.00;4.00;;;;;3.47;85.11;99275.03;5012508;28;8844;-55
2021/12/03 09:11:24;;;;;;;;;9.00;7.80;;;;;3.48;85.18;99274.09;5012282;28;8864;-55
2021/12/03 09:13:52;;;;;;;;;8.20;6.00;;;;;3.51;85.13;99278.34;5016637;28;8890;-54
2021/12/03 09:16:21;;;;;;;;;8.20;7.60;;;;;3.51;85.10;99273.06;5015866;28;8864;-54
2021/12/03 09:18:51;;;;;;;;;5.20;4.40;;;;;3.53;84.70;99263.28;5017446;28;8890;-54
2021/12/03 09:21:21;;;;;;;;;9.80;7.60;;;;;3.56;85.17;99265.75;5013227;28;8981;-55
2021/12/03 09:24:03;;;;;;;;;7.00;7.00;;;;;3.58;84.76;99269.13;5014966;28;9154;-55
2021/12/03 09:26:33;;;;;;;;;3.00;1.80;;;;;3.58;85.01;99264.72;5015660;28;8844;-54
2021/12/03 09:29:03;;;;;;;;;4.00;3.00;;;;;3.60;84.59;99269.88;5014261;28;8859;-54
2021/12/03 09:31:33;;;;;;;;;7.40;6.60;;;;;3.60;84.66;99278.63;5011313;28;9091;-54
2021/12/03 09:34:01;;;;;;;;;6.20;5.60;;;;;3.60;84.41;99276.00;5011927;28;9070;-55
2021/12/03 09:36:29;;;;;;;;;4.80;4.20;;;;;3.61;84.15;99271.56;5015550;28;8868;-54
2021/12/03 09:38:59;;;;;;;;;3.40;3.40;;;;;3.62;84.59;99274.09;5010131;28;9227;-55
2021/12/03 09:41:27;;;;;;;;;2.20;2.20;;;;;3.64;84.16;99268.75;5013701;28;9630;-55
2021/12/03 09:43:55;;;;;;;;;2.60;2.60;;;;;3.65;84.13;99265.16;5011222;28;8852;-55
2021/12/03 09:46:24;;;;;;;;;2.20;1.00;;;;;3.69;83.75;99256.97;5009927;28;8994;-54
2021/12/03 09:49:05;;;;;;;;;3.60;3.00;;;;;3.71;83.24;99255.09;5011517;28;8903;-54
2021/12/03 09:51:37;;;;;;;;;5.60;4.00;;;;;3.73;83.24;99245.34;5016312;28;9238;-54
2021/12/03 09:57:01;;;;;;;;;3.00;3.00;;;;;3.75;83.10;99238.19;4966697;28;8872;-54
2021/12/03 10:13:17;;;;;;;;;8.20;6.20;;;;;4.10;81.82;99242.03;5066154;27;13748;-56
2021/12/03 10:15:49;;;;;;;;;3.80;3.00;;;;;4.28;81.80;99223.22;5045302;28;8849;-56
2021/12/03 10:18:19;;;;;;;;;3.40;3.40;;;;;4.35;80.85;99237.69;5046862;28;9118;-55
2021/12/03 10:20:51;;;;;;;;;6.00;6.00;;;;;4.35;80.98;99236.84;5049518;28;8865;-56
2021/12/03 10:34:56;;;;;;;;;2.20;1.40;;;;;4.34;80.60;99229.91;5048830;28;8861;-54
2021/12/03 10:40:12;;;;;;;;;1.00;0.00;;;;;4.29;80.29;99217.03;5019041;28;8907;-53
2021/12/03 10:42:49;;;;;;;;;0.00;0.00;;;;;4.28;80.00;99214.47;5041738;28;9019;-56
2021/12/03 10:45:30;;;;;;;;;2.60;2.60;;;;;4.26;80.45;99208.47;5049169;28;9161;-55
2021/12/03 10:48:21;;;;;;;;;1.00;1.00;;;;;4.28;80.14;99206.56;5049314;28;9669;-56
2021/12/03 10:51:06;;;;;;;;;1.00;1.00;;;;;4.31;79.59;99201.09;5048024;28;9504;-56
2021/12/03 10:53:46;;;;;;;;;1.00;1.00;;;;;4.33;80.00;99199.22;5047385;28;9241;-56
2021/12/03 10:56:36;;;;;;;;;2.60;2.20;;;;;4.31;79.03;99198.47;5048044;28;9500;-56
2021/12/03 10:59:20;;;;;;;;;3.00;3.00;;;;;4.30;79.35;99202.03;5048474;28;9223;-56
2021/12/03 11:07:38;;;;;;;;;6.20;6.20;;;;;4.32;78.66;99186.97;5042814;28;8849;-56
2021/12/03 11:43:28;;;;;;;;;1.00;1.00;;;;;4.89;76.91;99093.38;5000282;28;8893;-55
2021/12/03 13:18:13;;;;;;;;;2.80;1.00;;;;;4.56;74.69;98962.13;5063726;28;9566;-56
2021/12/03 14:00:04;;;;;;;;;2.20;1.00;;;;;4.66;74.21;98917.50;5080913;28;8860;-55
2021/12/03 14:03:02;;;;;;;;;2.60;2.60;;;;;4.66;73.89;98907.81;5082029;28;8847;-55
2021/12/03 14:37:19;;;;;;;;;2.20;1.00;;;;;4.65;73.54;98873.63;5051708;28;8860;-55
2021/12/03 14:39:57;;;;;;;;;1.00;1.00;;;;;4.62;73.60;98872.06;5095755;28;8872;-56
2021/12/03 14:42:37;;;;;;;;;1.00;1.00;;;;;4.61;73.40;98880.06;5083927;28;8850;-55
2021/12/03 14:45:10;;;;;;;;;4.00;3.00;;;;;4.59;73.38;98874.94;5081810;28;8860;-56
2021/12/03 14:47:56;;;;;;;;;2.00;1.60;;;;;4.59;73.32;98876.72;5083470;28;8853;-56
2021/12/03 14:53:34;;;;;;;;;3.20;3.00;;;;;4.55;73.73;98877.88;5091686;28;9203;-56
2021/12/03 14:56:01;;;;;;;;;1.00;1.00;;;;;4.53;73.41;98870.09;5083943;28;8854;-55
2021/12/03 14:58:34;;;;;;;;;3.00;3.00;;;;;4.52;73.66;98857.03;5084334;28;9304;-55
2021/12/03 15:01:10;;;;;;;;;1.00;1.00;;;;;4.51;73.37;98868.53;5082184;28;9742;-56
2021/12/03 15:03:54;;;;;;;;;2.40;2.40;;;;;4.49;73.86;98868.63;5096018;28;8865;-55
2021/12/03 15:06:30;;;;;;;;;1.00;0.00;;;;;4.49;74.42;98867.81;5102575;28;8867;-55
2021/12/03 15:09:00;;;;;;;;;1.40;0.40;;;;;4.48;74.00;98869.56;5100425;28;8847;-55
2021/12/03 15:11:57;;;;;;;;;0.00;0.00;;;;;4.48;73.95;98874.03;5102637;28;8832;-55
2021/12/03 15:20:22;;;;;;;;;1.00;1.00;;;;;4.42;73.89;98851.56;5064086;28;9011;-55
2021/12/03 15:25:45;;;;;;;;;2.60;1.00;;;;;4.39;74.08;98848.31;5061747;28;8885;-54
2021/12/03 15:31:43;;;;;;;;;3.60;3.00;;;;;4.33;74.40;98841.69;5025633;28;8845;-54
2021/12/03 15:34:19;;;;;;;;;0.00;0.00;;;;;4.33;73.87;98848.78;5068573;28;8850;-54
2021/12/03 15:37:04;;;;;;;;;1.80;1.80;;;;;4.29;74.46;98844.66;5080154;28;8880;-54
2021/12/03 15:56:38;;;;;;;;;0.00;0.00;;;;;4.14;74.11;98820.28;5060220;28;8944;-54
2021/12/03 16:04:39;;;;;;;;;2.20;1.80;;;;;4.12;74.37;98831.88;5072487;28;9512;-55
2021/12/03 16:07:21;;;;;;;;;0.00;0.00;;;;;4.12;74.43;98829.22;5102898;28;8966;-55
2021/12/03 16:10:14;;;;;;;;;1.00;0.80;;;;;4.12;74.50;98819.53;5102105;28;8836;-54
2021/12/03 16:12:59;;;;;;;;;2.20;1.40;;;;;4.12;74.69;98823.97;5103134;28;8905;-55
2021/12/03 16:24:06;;;;;;;;;4.00;4.00;;;;;4.04;75.26;98811.34;5075249;28;8859;-54
2021/12/03 16:26:45;;;;;;;;;0.00;0.00;;;;;4.03;75.48;98811.47;5093923;28;8886;-54
2021/12/03 16:51:41;;;;;;;;;0.80;0.80;;;;;3.91;75.95;98775.47;5083054;28;8860;-54
2021/12/03 16:54:10;;;;;;;;;1.00;1.00;;;;;3.91;76.51;98778.09;5082765;28;8861;-55
2021/12/03 16:56:43;;;;;;;;;0.00;0.00;;;;;3.91;76.22;98789.47;5081439;28;8970;-55
2021/12/03 16:59:10;;;;;;;;;1.00;1.00;;;;;3.90;75.90;98785.13;5080305;28;8984;-55
2021/12/03 17:01:42;;;;;;;;;1.00;1.00;;;;;3.90;76.37;98771.97;5081449;28;8968;-55